sensor_id;sensor_type;location;lat;lon;timestamp;P1;durP1;ratioP1;P2;durP2;ratioP2
43509;SDS011;29105;57.764;40.952;2023-08-12T00:01:01;10.32;;;5.75;;
43509;SDS011;29105;57.764;40.952;2023-08-12T00:03:27;8.05;;;5.80;;
43509;SDS011;29105;57.764;40.952;2023-08-12T00:05:52;7.93;;;5.07;;
43509;SDS011;29105;57.764;40.952;2023-08-12T00:08:18;12.77;;;5.47;;
43509;SDS011;29105;57.764;40.952;2023-08-12T00:10:44;11.75;;;5.30;;
43509;SDS011;29105;57.764;40.952;2023-08-12T00:13:09;5.93;;;5.40;;
43509;SDS011;29105;57.764;40.952;2023-08-12T00:15:35;7.15;;;5.57;;
43509;SDS011;29105;57.764;40.952;2023-08-12T00:18:01;6.90;;;5.82;;
43509;SDS011;29105;57.764;40.952;2023-08-12T00:20:29;6.63;;;5.15;;
43509;SDS011;29105;57.764;40.952;2023-08-12T00:22:55;9.25;;;5.88;;
43509;SDS011;29105;57.764;40.952;2023-08-12T00:25:20;7.07;;;5.70;;
43509;SDS011;29105;57.764;40.952;2023-08-12T00:27:46;7.72;;;5.20;;
43509;SDS011;29105;57.764;40.952;2023-08-12T00:30:12;5.50;;;4.70;;
43509;SDS011;29105;57.764;40.952;2023-08-12T00:32:38;10.00;;;5.82;;
43509;SDS011;29105;57.764;40.952;2023-08-12T00:35:03;8.80;;;6.28;;
43509;SDS011;29105;57.764;40.952;2023-08-12T00:37:31;10.25;;;5.53;;
43509;SDS011;29105;57.764;40.952;2023-08-12T00:39:57;7.55;;;5.78;;
43509;SDS011;29105;57.764;40.952;2023-08-12T00:42:22;11.20;;;5.68;;
43509;SDS011;29105;57.764;40.952;2023-08-12T00:44:48;11.05;;;4.78;;
43509;SDS011;29105;57.764;40.952;2023-08-12T00:47:14;7.32;;;5.60;;
43509;SDS011;29105;57.764;40.952;2023-08-12T00:49:41;7.22;;;5.50;;
43509;SDS011;29105;57.764;40.952;2023-08-12T00:52:09;6.57;;;4.60;;
43509;SDS011;29105;57.764;40.952;2023-08-12T00:54:34;11.35;;;4.63;;
43509;SDS011;29105;57.764;40.952;2023-08-12T00:57:00;7.50;;;5.90;;
43509;SDS011;29105;57.764;40.952;2023-08-12T00:59:26;8.70;;;5.50;;
43509;SDS011;29105;57.764;40.952;2023-08-12T01:01:52;9.07;;;5.70;;
43509;SDS011;29105;57.764;40.952;2023-08-12T01:04:17;8.82;;;5.47;;
43509;SDS011;29105;57.764;40.952;2023-08-12T01:06:43;7.00;;;5.10;;
43509;SDS011;29105;57.764;40.952;2023-08-12T01:09:10;9.25;;;5.85;;
43509;SDS011;29105;57.764;40.952;2023-08-12T01:19:51;9.40;;;5.03;;
43509;SDS011;29105;57.764;40.952;2023-08-12T01:22:16;9.88;;;6.03;;
43509;SDS011;29105;57.764;40.952;2023-08-12T01:24:46;7.78;;;5.53;;
43509;SDS011;29105;57.764;40.952;2023-08-12T01:27:12;8.15;;;5.20;;
43509;SDS011;29105;57.764;40.952;2023-08-12T01:29:42;8.52;;;5.13;;
43509;SDS011;29105;57.764;40.952;2023-08-12T01:35:09;7.50;;;5.93;;
43509;SDS011;29105;57.764;40.952;2023-08-12T01:37:47;10.23;;;5.82;;
43509;SDS011;29105;57.764;40.952;2023-08-12T01:40:15;9.93;;;6.35;;
43509;SDS011;29105;57.764;40.952;2023-08-12T01:42:42;8.45;;;5.47;;
43509;SDS011;29105;57.764;40.952;2023-08-12T01:45:08;11.70;;;5.68;;
43509;SDS011;29105;57.764;40.952;2023-08-12T01:47:34;10.32;;;6.68;;
43509;SDS011;29105;57.764;40.952;2023-08-12T01:50:00;8.18;;;4.90;;
43509;SDS011;29105;57.764;40.952;2023-08-12T01:52:25;10.90;;;6.38;;
43509;SDS011;29105;57.764;40.952;2023-08-12T01:54:51;8.07;;;4.63;;
43509;SDS011;29105;57.764;40.952;2023-08-12T01:57:17;9.38;;;5.53;;
43509;SDS011;29105;57.764;40.952;2023-08-12T01:59:43;9.15;;;5.15;;
43509;SDS011;29105;57.764;40.952;2023-08-12T02:02:09;6.75;;;4.97;;
43509;SDS011;29105;57.764;40.952;2023-08-12T02:04:35;7.82;;;4.97;;
43509;SDS011;29105;57.764;40.952;2023-08-12T02:07:03;9.05;;;5.70;;
43509;SDS011;29105;57.764;40.952;2023-08-12T02:09:29;9.13;;;5.45;;
43509;SDS011;29105;57.764;40.952;2023-08-12T02:11:55;6.55;;;4.93;;
43509;SDS011;29105;57.764;40.952;2023-08-12T02:14:21;7.65;;;5.28;;
43509;SDS011;29105;57.764;40.952;2023-08-12T02:16:47;9.20;;;6.10;;
43509;SDS011;29105;57.764;40.952;2023-08-12T02:19:13;6.22;;;5.25;;
43509;SDS011;29105;57.764;40.952;2023-08-12T02:21:38;10.07;;;5.32;;
43509;SDS011;29105;57.764;40.952;2023-08-12T02:24:04;7.20;;;5.43;;
43509;SDS011;29105;57.764;40.952;2023-08-12T02:26:30;10.65;;;6.00;;
43509;SDS011;29105;57.764;40.952;2023-08-12T02:28:56;7.28;;;5.68;;
43509;SDS011;29105;57.764;40.952;2023-08-12T02:31:22;10.90;;;5.30;;
43509;SDS011;29105;57.764;40.952;2023-08-12T02:33:47;9.50;;;5.03;;
43509;SDS011;29105;57.764;40.952;2023-08-12T02:36:15;7.93;;;5.60;;
43509;SDS011;29105;57.764;40.952;2023-08-12T02:38:40;8.02;;;5.50;;
43509;SDS011;29105;57.764;40.952;2023-08-12T02:41:06;8.18;;;4.25;;
43509;SDS011;29105;57.764;40.952;2023-08-12T02:43:34;6.85;;;5.50;;
43509;SDS011;29105;57.764;40.952;2023-08-12T02:46:00;10.70;;;5.80;;
43509;SDS011;29105;57.764;40.952;2023-08-12T02:48:26;7.25;;;5.43;;
43509;SDS011;29105;57.764;40.952;2023-08-12T02:50:51;7.18;;;5.30;;
43509;SDS011;29105;57.764;40.952;2023-08-12T02:53:17;8.38;;;5.60;;
43509;SDS011;29105;57.764;40.952;2023-08-12T02:55:44;9.35;;;5.22;;
43509;SDS011;29105;57.764;40.952;2023-08-12T02:58:10;8.32;;;4.90;;
43509;SDS011;29105;57.764;40.952;2023-08-12T03:00:36;10.65;;;6.13;;
43509;SDS011;29105;57.764;40.952;2023-08-12T03:03:02;8.60;;;5.05;;
43509;SDS011;29105;57.764;40.952;2023-08-12T03:05:28;8.32;;;5.53;;
43509;SDS011;29105;57.764;40.952;2023-08-12T03:07:53;8.60;;;4.60;;
43509;SDS011;29105;57.764;40.952;2023-08-12T03:10:19;6.47;;;4.75;;
43509;SDS011;29105;57.764;40.952;2023-08-12T03:12:45;7.72;;;5.20;;
43509;SDS011;29105;57.764;40.952;2023-08-12T03:15:10;7.53;;;5.68;;
43509;SDS011;29105;57.764;40.952;2023-08-12T03:17:36;9.80;;;5.82;;
43509;SDS011;29105;57.764;40.952;2023-08-12T03:20:05;10.05;;;5.43;;
43509;SDS011;29105;57.764;40.952;2023-08-12T03:22:35;8.10;;;5.90;;
43509;SDS011;29105;57.764;40.952;2023-08-12T03:25:02;7.90;;;5.55;;
43509;SDS011;29105;57.764;40.952;2023-08-12T03:27:29;7.47;;;5.18;;
43509;SDS011;29105;57.764;40.952;2023-08-12T03:29:55;8.35;;;5.55;;
43509;SDS011;29105;57.764;40.952;2023-08-12T03:32:21;9.07;;;4.93;;
43509;SDS011;29105;57.764;40.952;2023-08-12T03:34:47;7.60;;;5.07;;
43509;SDS011;29105;57.764;40.952;2023-08-12T03:37:12;7.65;;;5.43;;
43509;SDS011;29105;57.764;40.952;2023-08-12T03:39:38;7.07;;;5.63;;
43509;SDS011;29105;57.764;40.952;2023-08-12T03:42:03;12.77;;;5.07;;
43509;SDS011;29105;57.764;40.952;2023-08-12T03:44:29;9.60;;;5.63;;
43509;SDS011;29105;57.764;40.952;2023-08-12T03:46:55;7.75;;;5.53;;
43509;SDS011;29105;57.764;40.952;2023-08-12T03:49:20;8.18;;;5.00;;
43509;SDS011;29105;57.764;40.952;2023-08-12T03:51:46;11.25;;;4.97;;
43509;SDS011;29105;57.764;40.952;2023-08-12T03:54:12;9.27;;;5.72;;
43509;SDS011;29105;57.764;40.952;2023-08-12T03:56:37;7.28;;;5.60;;
43509;SDS011;29105;57.764;40.952;2023-08-12T03:59:03;7.18;;;4.80;;
43509;SDS011;29105;57.764;40.952;2023-08-12T04:01:29;7.93;;;5.32;;
43509;SDS011;29105;57.764;40.952;2023-08-12T04:03:55;7.47;;;5.43;;
43509;SDS011;29105;57.764;40.952;2023-08-12T04:06:20;10.02;;;5.93;;
43509;SDS011;29105;57.764;40.952;2023-08-12T04:08:46;7.55;;;5.32;;
43509;SDS011;29105;57.764;40.952;2023-08-12T04:11:12;9.15;;;6.03;;
43509;SDS011;29105;57.764;40.952;2023-08-12T04:13:37;9.35;;;6.30;;
43509;SDS011;29105;57.764;40.952;2023-08-12T04:16:03;8.80;;;6.13;;
43509;SDS011;29105;57.764;40.952;2023-08-12T04:18:29;12.55;;;5.35;;
43509;SDS011;29105;57.764;40.952;2023-08-12T04:20:54;10.13;;;5.80;;
43509;SDS011;29105;57.764;40.952;2023-08-12T04:23:20;8.13;;;5.93;;
43509;SDS011;29105;57.764;40.952;2023-08-12T04:25:46;7.70;;;4.90;;
43509;SDS011;29105;57.764;40.952;2023-08-12T04:28:12;8.32;;;5.47;;
43509;SDS011;29105;57.764;40.952;2023-08-12T04:30:45;9.00;;;5.80;;
43509;SDS011;29105;57.764;40.952;2023-08-12T04:33:13;8.45;;;5.60;;
43509;SDS011;29105;57.764;40.952;2023-08-12T04:35:39;10.77;;;6.32;;
43509;SDS011;29105;57.764;40.952;2023-08-12T04:38:05;11.07;;;5.93;;
43509;SDS011;29105;57.764;40.952;2023-08-12T04:40:31;15.90;;;8.23;;
43509;SDS011;29105;57.764;40.952;2023-08-12T04:43:00;14.82;;;8.38;;
43509;SDS011;29105;57.764;40.952;2023-08-12T04:45:27;7.45;;;6.10;;
43509;SDS011;29105;57.764;40.952;2023-08-12T04:47:52;10.35;;;6.18;;
43509;SDS011;29105;57.764;40.952;2023-08-12T04:50:19;10.00;;;8.18;;
43509;SDS011;29105;57.764;40.952;2023-08-12T04:52:45;10.90;;;7.43;;
43509;SDS011;29105;57.764;40.952;2023-08-12T04:55:11;11.63;;;7.30;;
43509;SDS011;29105;57.764;40.952;2023-08-12T04:57:37;12.73;;;7.85;;
43509;SDS011;29105;57.764;40.952;2023-08-12T05:00:03;14.52;;;7.82;;
43509;SDS011;29105;57.764;40.952;2023-08-12T05:02:33;14.52;;;8.23;;
43509;SDS011;29105;57.764;40.952;2023-08-12T05:04:59;13.25;;;6.93;;
43509;SDS011;29105;57.764;40.952;2023-08-12T05:07:25;8.85;;;6.68;;
43509;SDS011;29105;57.764;40.952;2023-08-12T05:09:50;12.82;;;6.65;;
43509;SDS011;29105;57.764;40.952;2023-08-12T05:12:16;7.20;;;5.90;;
43509;SDS011;29105;57.764;40.952;2023-08-12T05:14:42;7.22;;;5.75;;
43509;SDS011;29105;57.764;40.952;2023-08-12T05:17:14;11.90;;;6.90;;
43509;SDS011;29105;57.764;40.952;2023-08-12T05:19:40;9.98;;;6.15;;
43509;SDS011;29105;57.764;40.952;2023-08-12T05:22:06;12.15;;;6.35;;
43509;SDS011;29105;57.764;40.952;2023-08-12T05:24:31;8.27;;;5.82;;
43509;SDS011;29105;57.764;40.952;2023-08-12T05:26:57;11.52;;;6.55;;
43509;SDS011;29105;57.764;40.952;2023-08-12T05:29:23;10.23;;;5.55;;
43509;SDS011;29105;57.764;40.952;2023-08-12T05:31:48;11.55;;;5.45;;
43509;SDS011;29105;57.764;40.952;2023-08-12T05:34:14;10.90;;;6.05;;
43509;SDS011;29105;57.764;40.952;2023-08-12T05:36:40;7.85;;;5.85;;
43509;SDS011;29105;57.764;40.952;2023-08-12T05:39:05;13.30;;;6.60;;
43509;SDS011;29105;57.764;40.952;2023-08-12T05:41:31;6.88;;;5.68;;
43509;SDS011;29105;57.764;40.952;2023-08-12T05:43:57;11.00;;;6.30;;
43509;SDS011;29105;57.764;40.952;2023-08-12T05:46:22;13.48;;;6.43;;
43509;SDS011;29105;57.764;40.952;2023-08-12T05:48:48;10.93;;;5.68;;
43509;SDS011;29105;57.764;40.952;2023-08-12T05:51:13;8.77;;;6.00;;
43509;SDS011;29105;57.764;40.952;2023-08-12T05:53:39;6.93;;;5.47;;
43509;SDS011;29105;57.764;40.952;2023-08-12T05:56:05;9.32;;;5.85;;
43509;SDS011;29105;57.764;40.952;2023-08-12T05:58:30;7.78;;;5.90;;
43509;SDS011;29105;57.764;40.952;2023-08-12T06:00:56;12.23;;;6.28;;
43509;SDS011;29105;57.764;40.952;2023-08-12T06:03:22;13.68;;;5.57;;
43509;SDS011;29105;57.764;40.952;2023-08-12T06:05:47;11.52;;;5.55;;
43509;SDS011;29105;57.764;40.952;2023-08-12T06:08:13;9.25;;;6.03;;
43509;SDS011;29105;57.764;40.952;2023-08-12T06:10:39;8.98;;;6.03;;
43509;SDS011;29105;57.764;40.952;2023-08-12T06:13:05;7.93;;;5.70;;
43509;SDS011;29105;57.764;40.952;2023-08-12T06:15:31;8.27;;;5.13;;
43509;SDS011;29105;57.764;40.952;2023-08-12T06:17:57;13.30;;;5.50;;
43509;SDS011;29105;57.764;40.952;2023-08-12T06:20:23;6.70;;;5.25;;
43509;SDS011;29105;57.764;40.952;2023-08-12T06:22:50;8.30;;;4.82;;
43509;SDS011;29105;57.764;40.952;2023-08-12T06:25:18;7.93;;;4.07;;
43509;SDS011;29105;57.764;40.952;2023-08-12T06:27:45;5.88;;;4.47;;
43509;SDS011;29105;57.764;40.952;2023-08-12T06:30:11;8.68;;;4.40;;
43509;SDS011;29105;57.764;40.952;2023-08-12T06:32:37;4.30;;;3.85;;
43509;SDS011;29105;57.764;40.952;2023-08-12T06:35:12;7.82;;;4.40;;
43509;SDS011;29105;57.764;40.952;2023-08-12T06:37:38;5.43;;;4.00;;
43509;SDS011;29105;57.764;40.952;2023-08-12T06:40:04;4.93;;;4.15;;
43509;SDS011;29105;57.764;40.952;2023-08-12T06:42:30;6.57;;;3.90;;
43509;SDS011;29105;57.764;40.952;2023-08-12T06:44:57;7.93;;;5.05;;
43509;SDS011;29105;57.764;40.952;2023-08-12T06:47:23;5.75;;;4.30;;
43509;SDS011;29105;57.764;40.952;2023-08-12T06:49:49;5.32;;;4.47;;
43509;SDS011;29105;57.764;40.952;2023-08-12T06:52:15;5.72;;;5.13;;
43509;SDS011;29105;57.764;40.952;2023-08-12T06:54:41;7.75;;;4.28;;
43509;SDS011;29105;57.764;40.952;2023-08-12T06:57:07;6.47;;;3.83;;
43509;SDS011;29105;57.764;40.952;2023-08-12T06:59:33;4.38;;;3.78;;
43509;SDS011;29105;57.764;40.952;2023-08-12T07:01:59;7.32;;;4.57;;
43509;SDS011;29105;57.764;40.952;2023-08-12T07:04:24;5.13;;;4.18;;
43509;SDS011;29105;57.764;40.952;2023-08-12T07:06:50;8.38;;;4.53;;
43509;SDS011;29105;57.764;40.952;2023-08-12T07:09:18;7.40;;;3.92;;
43509;SDS011;29105;57.764;40.952;2023-08-12T07:11:44;7.63;;;4.32;;
43509;SDS011;29105;57.764;40.952;2023-08-12T07:14:10;6.38;;;3.58;;
43509;SDS011;29105;57.764;40.952;2023-08-12T07:16:35;6.65;;;4.30;;
43509;SDS011;29105;57.764;40.952;2023-08-12T07:19:01;6.95;;;4.40;;
43509;SDS011;29105;57.764;40.952;2023-08-12T07:21:27;7.82;;;4.57;;
43509;SDS011;29105;57.764;40.952;2023-08-12T07:23:52;5.78;;;4.40;;
43509;SDS011;29105;57.764;40.952;2023-08-12T07:26:18;5.95;;;4.32;;
43509;SDS011;29105;57.764;40.952;2023-08-12T07:28:46;11.57;;;4.05;;
43509;SDS011;29105;57.764;40.952;2023-08-12T07:31:12;5.75;;;4.30;;
43509;SDS011;29105;57.764;40.952;2023-08-12T07:33:37;5.55;;;3.85;;
43509;SDS011;29105;57.764;40.952;2023-08-12T07:36:03;5.00;;;3.60;;
43509;SDS011;29105;57.764;40.952;2023-08-12T07:38:29;7.38;;;4.18;;
43509;SDS011;29105;57.764;40.952;2023-08-12T07:40:54;8.98;;;3.88;;
43509;SDS011;29105;57.764;40.952;2023-08-12T07:43:20;4.68;;;4.10;;
43509;SDS011;29105;57.764;40.952;2023-08-12T07:45:50;6.65;;;4.63;;
43509;SDS011;29105;57.764;40.952;2023-08-12T07:48:17;4.82;;;3.38;;
43509;SDS011;29105;57.764;40.952;2023-08-12T07:50:44;4.82;;;3.58;;
43509;SDS011;29105;57.764;40.952;2023-08-12T07:53:09;4.97;;;4.10;;
43509;SDS011;29105;57.764;40.952;2023-08-12T07:55:35;6.00;;;3.42;;
43509;SDS011;29105;57.764;40.952;2023-08-12T07:58:01;4.00;;;3.58;;
43509;SDS011;29105;57.764;40.952;2023-08-12T08:00:26;4.90;;;4.40;;
43509;SDS011;29105;57.764;40.952;2023-08-12T08:02:52;7.18;;;3.92;;
43509;SDS011;29105;57.764;40.952;2023-08-12T08:05:18;3.90;;;3.17;;
43509;SDS011;29105;57.764;40.952;2023-08-12T08:07:43;7.97;;;4.63;;
43509;SDS011;29105;57.764;40.952;2023-08-12T08:10:09;9.40;;;4.57;;
43509;SDS011;29105;57.764;40.952;2023-08-12T08:12:35;6.43;;;4.22;;
43509;SDS011;29105;57.764;40.952;2023-08-12T08:15:01;4.18;;;3.25;;
43509;SDS011;29105;57.764;40.952;2023-08-12T08:17:29;4.50;;;4.10;;
43509;SDS011;29105;57.764;40.952;2023-08-12T08:19:55;4.10;;;3.70;;
43509;SDS011;29105;57.764;40.952;2023-08-12T08:22:21;6.85;;;4.05;;
43509;SDS011;29105;57.764;40.952;2023-08-12T08:24:46;7.82;;;4.07;;
43509;SDS011;29105;57.764;40.952;2023-08-12T08:27:12;10.75;;;4.40;;
43509;SDS011;29105;57.764;40.952;2023-08-12T08:29:40;5.28;;;3.90;;
43509;SDS011;29105;57.764;40.952;2023-08-12T08:32:06;14.02;;;4.07;;
43509;SDS011;29105;57.764;40.952;2023-08-12T08:34:32;7.35;;;3.40;;
43509;SDS011;29105;57.764;40.952;2023-08-12T08:36:57;6.38;;;4.35;;
43509;SDS011;29105;57.764;40.952;2023-08-12T08:39:23;8.07;;;4.18;;
43509;SDS011;29105;57.764;40.952;2023-08-12T08:41:49;4.15;;;3.33;;
43509;SDS011;29105;57.764;40.952;2023-08-12T08:44:14;6.18;;;3.88;;
43509;SDS011;29105;57.764;40.952;2023-08-12T08:46:41;5.63;;;4.28;;
43509;SDS011;29105;57.764;40.952;2023-08-12T08:49:07;7.07;;;4.45;;
43509;SDS011;29105;57.764;40.952;2023-08-12T08:51:34;4.05;;;3.63;;
43509;SDS011;29105;57.764;40.952;2023-08-12T08:54:02;8.38;;;4.95;;
43509;SDS011;29105;57.764;40.952;2023-08-12T08:56:29;7.30;;;4.30;;
43509;SDS011;29105;57.764;40.952;2023-08-12T08:58:57;7.68;;;4.35;;
43509;SDS011;29105;57.764;40.952;2023-08-12T09:01:23;6.28;;;3.13;;
43509;SDS011;29105;57.764;40.952;2023-08-12T09:03:50;8.00;;;3.70;;
43509;SDS011;29105;57.764;40.952;2023-08-12T09:06:18;13.23;;;3.42;;
43509;SDS011;29105;57.764;40.952;2023-08-12T09:08:48;4.43;;;3.75;;
43509;SDS011;29105;57.764;40.952;2023-08-12T09:11:14;5.35;;;3.70;;
43509;SDS011;29105;57.764;40.952;2023-08-12T09:13:41;5.15;;;4.00;;
43509;SDS011;29105;57.764;40.952;2023-08-12T09:16:06;7.05;;;3.90;;
43509;SDS011;29105;57.764;40.952;2023-08-12T09:18:32;5.15;;;3.53;;
43509;SDS011;29105;57.764;40.952;2023-08-12T09:20:58;6.47;;;3.92;;
43509;SDS011;29105;57.764;40.952;2023-08-12T09:23:25;7.93;;;4.07;;
43509;SDS011;29105;57.764;40.952;2023-08-12T09:25:51;6.05;;;4.70;;
43509;SDS011;29105;57.764;40.952;2023-08-12T09:28:17;9.40;;;4.95;;
43509;SDS011;29105;57.764;40.952;2023-08-12T09:30:43;7.55;;;3.30;;
43509;SDS011;29105;57.764;40.952;2023-08-12T09:33:16;5.28;;;4.10;;
43509;SDS011;29105;57.764;40.952;2023-08-12T09:35:49;6.50;;;3.88;;
43509;SDS011;29105;57.764;40.952;2023-08-12T09:38:15;4.20;;;3.03;;
43509;SDS011;29105;57.764;40.952;2023-08-12T09:40:41;5.82;;;3.80;;
43509;SDS011;29105;57.764;40.952;2023-08-12T09:43:07;6.00;;;4.28;;
43509;SDS011;29105;57.764;40.952;2023-08-12T09:45:34;8.93;;;4.53;;
43509;SDS011;29105;57.764;40.952;2023-08-12T09:48:00;5.63;;;3.95;;
43509;SDS011;29105;57.764;40.952;2023-08-12T09:50:26;7.78;;;5.18;;
43509;SDS011;29105;57.764;40.952;2023-08-12T09:52:53;8.85;;;5.40;;
43509;SDS011;29105;57.764;40.952;2023-08-12T09:55:21;4.70;;;4.10;;
43509;SDS011;29105;57.764;40.952;2023-08-12T09:57:48;8.40;;;4.20;;
43509;SDS011;29105;57.764;40.952;2023-08-12T10:00:19;11.65;;;4.68;;
43509;SDS011;29105;57.764;40.952;2023-08-12T10:02:47;6.45;;;4.47;;
43509;SDS011;29105;57.764;40.952;2023-08-12T10:05:32;6.05;;;4.35;;
43509;SDS011;29105;57.764;40.952;2023-08-12T10:07:59;5.35;;;4.18;;
43509;SDS011;29105;57.764;40.952;2023-08-12T10:10:27;5.18;;;4.68;;
43509;SDS011;29105;57.764;40.952;2023-08-12T10:12:53;5.00;;;3.70;;
43509;SDS011;29105;57.764;40.952;2023-08-12T10:15:19;6.07;;;4.75;;
43509;SDS011;29105;57.764;40.952;2023-08-12T10:17:46;7.90;;;5.15;;
43509;SDS011;29105;57.764;40.952;2023-08-12T10:20:19;6.55;;;4.90;;
43509;SDS011;29105;57.764;40.952;2023-08-12T10:22:46;7.43;;;4.78;;
43509;SDS011;29105;57.764;40.952;2023-08-12T10:25:13;8.25;;;4.95;;
43509;SDS011;29105;57.764;40.952;2023-08-12T10:27:40;7.18;;;4.55;;
43509;SDS011;29105;57.764;40.952;2023-08-12T10:30:07;6.53;;;4.97;;
43509;SDS011;29105;57.764;40.952;2023-08-12T10:32:34;7.53;;;4.63;;
43509;SDS011;29105;57.764;40.952;2023-08-12T10:35:00;6.95;;;3.75;;
43509;SDS011;29105;57.764;40.952;2023-08-12T10:39:57;6.40;;;4.57;;
43509;SDS011;29105;57.764;40.952;2023-08-12T10:42:41;6.60;;;4.90;;
43509;SDS011;29105;57.764;40.952;2023-08-12T10:45:08;8.98;;;4.93;;
43509;SDS011;29105;57.764;40.952;2023-08-12T10:48:17;7.80;;;3.92;;
43509;SDS011;29105;57.764;40.952;2023-08-12T10:50:25;12.63;;;4.28;;
43509;SDS011;29105;57.764;40.952;2023-08-12T10:52:54;7.18;;;5.00;;
43509;SDS011;29105;57.764;40.952;2023-08-12T10:55:24;9.45;;;5.13;;
43509;SDS011;29105;57.764;40.952;2023-08-12T10:57:52;5.20;;;4.70;;
43509;SDS011;29105;57.764;40.952;2023-08-12T11:00:20;5.50;;;4.88;;
43509;SDS011;29105;57.764;40.952;2023-08-12T11:02:52;6.18;;;4.25;;
43509;SDS011;29105;57.764;40.952;2023-08-12T11:05:19;5.40;;;3.85;;
43509;SDS011;29105;57.764;40.952;2023-08-12T11:07:49;6.35;;;4.70;;
43509;SDS011;29105;57.764;40.952;2023-08-12T11:10:24;6.28;;;4.53;;
43509;SDS011;29105;57.764;40.952;2023-08-12T11:15:40;6.47;;;4.50;;
43509;SDS011;29105;57.764;40.952;2023-08-12T11:20:38;8.88;;;5.35;;
43509;SDS011;29105;57.764;40.952;2023-08-12T11:23:04;6.28;;;4.18;;
43509;SDS011;29105;57.764;40.952;2023-08-12T11:25:31;7.70;;;4.63;;
43509;SDS011;29105;57.764;40.952;2023-08-12T11:27:57;6.32;;;4.78;;
43509;SDS011;29105;57.764;40.952;2023-08-12T11:30:24;7.28;;;4.30;;
43509;SDS011;29105;57.764;40.952;2023-08-12T11:32:51;6.72;;;5.00;;
43509;SDS011;29105;57.764;40.952;2023-08-12T11:35:18;4.63;;;3.63;;
43509;SDS011;29105;57.764;40.952;2023-08-12T11:37:48;9.00;;;4.03;;
43509;SDS011;29105;57.764;40.952;2023-08-12T11:40:15;9.75;;;5.25;;
43509;SDS011;29105;57.764;40.952;2023-08-12T11:42:43;6.95;;;4.30;;
43509;SDS011;29105;57.764;40.952;2023-08-12T11:45:13;7.75;;;4.20;;
43509;SDS011;29105;57.764;40.952;2023-08-12T11:47:41;5.57;;;4.75;;
43509;SDS011;29105;57.764;40.952;2023-08-12T11:50:10;6.88;;;5.22;;
43509;SDS011;29105;57.764;40.952;2023-08-12T11:52:37;7.55;;;4.68;;
43509;SDS011;29105;57.764;40.952;2023-08-12T11:55:04;5.85;;;4.40;;
43509;SDS011;29105;57.764;40.952;2023-08-12T11:57:30;4.57;;;3.83;;
43509;SDS011;29105;57.764;40.952;2023-08-12T12:02:26;6.20;;;3.60;;
43509;SDS011;29105;57.764;40.952;2023-08-12T12:04:52;5.85;;;3.92;;
43509;SDS011;29105;57.764;40.952;2023-08-12T12:07:23;6.75;;;4.63;;
43509;SDS011;29105;57.764;40.952;2023-08-12T12:09:53;6.80;;;4.97;;
43509;SDS011;29105;57.764;40.952;2023-08-12T12:12:23;6.13;;;3.43;;
43509;SDS011;29105;57.764;40.952;2023-08-12T12:14:53;8.70;;;4.30;;
43509;SDS011;29105;57.764;40.952;2023-08-12T12:17:23;6.10;;;4.43;;
43509;SDS011;29105;57.764;40.952;2023-08-12T12:19:55;5.78;;;4.18;;
43509;SDS011;29105;57.764;40.952;2023-08-12T12:22:29;7.43;;;5.15;;
43509;SDS011;29105;57.764;40.952;2023-08-12T12:24:59;4.75;;;4.25;;
43509;SDS011;29105;57.764;40.952;2023-08-12T12:27:30;7.93;;;4.40;;
43509;SDS011;29105;57.764;40.952;2023-08-12T12:29:55;12.32;;;4.85;;
43509;SDS011;29105;57.764;40.952;2023-08-12T12:32:21;5.18;;;4.00;;
43509;SDS011;29105;57.764;40.952;2023-08-12T12:34:47;5.57;;;4.57;;
43509;SDS011;29105;57.764;40.952;2023-08-12T12:37:13;6.65;;;4.63;;
43509;SDS011;29105;57.764;40.952;2023-08-12T12:39:39;6.88;;;4.25;;
43509;SDS011;29105;57.764;40.952;2023-08-12T12:42:05;6.78;;;5.40;;
43509;SDS011;29105;57.764;40.952;2023-08-12T12:44:31;7.25;;;4.68;;
43509;SDS011;29105;57.764;40.952;2023-08-12T12:46:57;4.97;;;3.90;;
43509;SDS011;29105;57.764;40.952;2023-08-12T12:49:23;9.82;;;5.03;;
43509;SDS011;29105;57.764;40.952;2023-08-12T12:51:49;6.03;;;4.32;;
43509;SDS011;29105;57.764;40.952;2023-08-12T12:54:15;5.22;;;4.22;;
43509;SDS011;29105;57.764;40.952;2023-08-12T12:56:41;6.07;;;4.95;;
43509;SDS011;29105;57.764;40.952;2023-08-12T12:59:06;5.82;;;4.47;;
43509;SDS011;29105;57.764;40.952;2023-08-12T13:01:32;4.65;;;4.20;;
43509;SDS011;29105;57.764;40.952;2023-08-12T13:03:58;6.32;;;4.50;;
43509;SDS011;29105;57.764;40.952;2023-08-12T13:06:24;6.65;;;4.25;;
43509;SDS011;29105;57.764;40.952;2023-08-12T13:08:49;6.30;;;3.65;;
43509;SDS011;29105;57.764;40.952;2023-08-12T13:11:15;5.68;;;4.25;;
43509;SDS011;29105;57.764;40.952;2023-08-12T13:13:41;7.65;;;4.13;;
43509;SDS011;29105;57.764;40.952;2023-08-12T13:16:07;7.05;;;4.68;;
43509;SDS011;29105;57.764;40.952;2023-08-12T13:18:35;7.65;;;4.03;;
43509;SDS011;29105;57.764;40.952;2023-08-12T13:21:01;6.50;;;5.22;;
43509;SDS011;29105;57.764;40.952;2023-08-12T13:23:26;5.68;;;4.32;;
43509;SDS011;29105;57.764;40.952;2023-08-12T13:25:52;6.00;;;4.13;;
43509;SDS011;29105;57.764;40.952;2023-08-12T13:28:18;6.40;;;3.55;;
43509;SDS011;29105;57.764;40.952;2023-08-12T13:30:44;5.90;;;4.63;;
43509;SDS011;29105;57.764;40.952;2023-08-12T13:33:10;5.70;;;3.85;;
43509;SDS011;29105;57.764;40.952;2023-08-12T13:35:36;9.35;;;4.03;;
43509;SDS011;29105;57.764;40.952;2023-08-12T13:38:02;9.05;;;3.13;;
43509;SDS011;29105;57.764;40.952;2023-08-12T13:40:28;6.38;;;3.20;;
43509;SDS011;29105;57.764;40.952;2023-08-12T13:42:54;7.43;;;4.65;;
43509;SDS011;29105;57.764;40.952;2023-08-12T13:45:19;6.65;;;4.20;;
43509;SDS011;29105;57.764;40.952;2023-08-12T13:47:45;6.05;;;3.92;;
43509;SDS011;29105;57.764;40.952;2023-08-12T13:50:11;9.55;;;2.47;;
43509;SDS011;29105;57.764;40.952;2023-08-12T13:52:38;7.15;;;4.60;;
43509;SDS011;29105;57.764;40.952;2023-08-12T13:55:04;6.85;;;5.00;;
43509;SDS011;29105;57.764;40.952;2023-08-12T13:57:31;6.90;;;4.95;;
43509;SDS011;29105;57.764;40.952;2023-08-12T13:59:56;6.75;;;4.07;;
43509;SDS011;29105;57.764;40.952;2023-08-12T14:02:22;6.65;;;5.07;;
43509;SDS011;29105;57.764;40.952;2023-08-12T14:04:48;10.48;;;4.20;;
43509;SDS011;29105;57.764;40.952;2023-08-12T14:07:14;7.20;;;4.35;;
43509;SDS011;29105;57.764;40.952;2023-08-12T14:09:40;8.13;;;3.90;;
43509;SDS011;29105;57.764;40.952;2023-08-12T14:12:06;8.25;;;4.40;;
43509;SDS011;29105;57.764;40.952;2023-08-12T14:14:32;7.47;;;4.38;;
43509;SDS011;29105;57.764;40.952;2023-08-12T14:16:58;7.03;;;4.38;;
43509;SDS011;29105;57.764;40.952;2023-08-12T14:19:23;6.57;;;4.70;;
43509;SDS011;29105;57.764;40.952;2023-08-12T14:21:49;7.40;;;4.43;;
43509;SDS011;29105;57.764;40.952;2023-08-12T14:24:15;7.03;;;4.03;;
43509;SDS011;29105;57.764;40.952;2023-08-12T14:26:41;8.82;;;4.72;;
43509;SDS011;29105;57.764;40.952;2023-08-12T14:29:06;8.95;;;4.78;;
43509;SDS011;29105;57.764;40.952;2023-08-12T14:31:33;6.70;;;3.70;;
43509;SDS011;29105;57.764;40.952;2023-08-12T14:33:59;4.88;;;4.38;;
43509;SDS011;29105;57.764;40.952;2023-08-12T14:36:26;7.05;;;4.93;;
43509;SDS011;29105;57.764;40.952;2023-08-12T14:38:52;6.18;;;4.30;;
43509;SDS011;29105;57.764;40.952;2023-08-12T14:41:18;7.40;;;4.43;;
43509;SDS011;29105;57.764;40.952;2023-08-12T14:43:43;10.60;;;4.60;;
43509;SDS011;29105;57.764;40.952;2023-08-12T14:46:09;7.63;;;4.72;;
43509;SDS011;29105;57.764;40.952;2023-08-12T14:48:35;9.85;;;4.75;;
43509;SDS011;29105;57.764;40.952;2023-08-12T14:51:01;7.90;;;4.35;;